Time;durP1;ratioP1;P1;durP2;ratioP2;P2;SDS_P1;SDS_P2;PMS_P1;PMS_P2;Temp;Humidity;BMP_temperature;BMP_pressure;BME280_temperature;BME280_humidity;BME280_pressure;Samples;Min_cycle;Max_cycle;Signal;HPM_P1;HPM_P2
2022/06/26 00:01:02;;;;;;;7.35;2.80;;;15.00;99.90;;;;;;5092263;28;20471;-50
2022/06/26 00:03:28;;;;;;;5.22;2.97;;;15.00;99.90;;;;;;5091039;28;20024;-52
2022/06/26 00:05:54;;;;;;;16.38;3.70;;;15.00;99.90;;;;;;5092455;28;20419;-51
2022/06/26 00:08:21;;;;;;;12.13;3.25;;;14.90;99.90;;;;;;5091133;28;20028;-49
2022/06/26 00:10:47;;;;;;;9.55;2.78;;;14.90;99.90;;;;;;5091221;28;20028;-52
2022/06/26 00:13:13;;;;;;;13.32;3.25;;;14.90;99.90;;;;;;5093046;28;20034;-51
2022/06/26 00:15:39;;;;;;;10.32;2.90;;;15.00;99.90;;;;;;5093118;28;20101;-54
2022/06/26 00:18:05;;;;;;;14.45;3.30;;;15.00;99.90;;;;;;5093128;28;20051;-52
2022/06/26 00:20:31;;;;;;;5.53;2.85;;;14.90;99.90;;;;;;5093304;28;20080;-51
2022/06/26 00:22:57;;;;;;;3.05;2.75;;;14.80;99.90;;;;;;5093375;28;20028;-50
2022/06/26 00:25:23;;;;;;;9.05;3.42;;;14.80;99.90;;;;;;5093375;28;20024;-54
2022/06/26 00:27:48;;;;;;;5.95;2.75;;;14.80;99.90;;;;;;5093318;28;20392;-53
2022/06/26 00:30:27;;;;;;;5.72;3.05;;;14.80;99.90;;;;;;5092016;28;20032;-50
2022/06/26 00:32:53;;;;;;;11.15;3.45;;;14.90;99.90;;;;;;5091997;28;20028;-53
2022/06/26 00:35:18;;;;;;;7.57;2.97;;;14.90;99.90;;;;;;5092401;28;20058;-55
2022/06/26 00:37:44;;;;;;;7.88;2.65;;;14.80;99.90;;;;;;5092737;28;20471;-51
2022/06/26 00:40:10;;;;;;;6.60;3.30;;;14.80;99.90;;;;;;5092905;28;20028;-52
2022/06/26 00:42:36;;;;;;;9.27;2.92;;;14.70;99.90;;;;;;5092789;28;20093;-54
2022/06/26 00:45:02;;;;;;;16.80;3.58;;;14.80;99.90;;;;;;5090547;28;20495;-50
2022/06/26 00:47:30;;;;;;;18.98;2.92;;;14.70;99.90;;;;;;5089948;28;20023;-53
2022/06/26 00:49:57;;;;;;;5.50;3.03;;;14.70;99.90;;;;;;5090150;28;20483;-51
2022/06/26 00:52:23;;;;;;;8.13;3.30;;;14.60;99.90;;;;;;5089665;28;20111;-52
2022/06/26 00:54:53;;;;;;;13.60;3.05;;;14.60;99.90;;;;;;5089877;28;20027;-52
2022/06/26 00:57:19;;;;;;;8.52;3.80;;;14.60;99.90;;;;;;5089699;28;20032;-54
2022/06/26 00:59:46;;;;;;;12.90;3.40;;;14.60;99.90;;;;;;5089621;28;20032;-54
2022/06/26 01:02:12;;;;;;;9.48;3.03;;;14.60;99.90;;;;;;5089361;28;20413;-54
2022/06/26 01:04:38;;;;;;;12.90;3.20;;;14.50;99.90;;;;;;5091584;28;20020;-52
2022/06/26 01:07:04;;;;;;;6.80;3.58;;;14.60;99.90;;;;;;5090165;28;20020;-51
2022/06/26 01:09:30;;;;;;;11.85;3.13;;;14.50;99.90;;;;;;5091277;28;20020;-50
2022/06/26 01:11:56;;;;;;;17.50;3.33;;;14.50;99.90;;;;;;5091408;28;20039;-53
2022/06/26 01:14:21;;;;;;;14.43;3.33;;;14.30;99.90;;;;;;5090867;28;20056;-54
2022/06/26 01:16:47;;;;;;;5.53;3.20;;;14.40;99.90;;;;;;5091200;28;20090;-52
2022/06/26 01:19:19;;;;;;;7.60;3.63;;;14.40;99.90;;;;;;5090901;28;20113;-49
2022/06/26 01:21:46;;;;;;;10.60;3.58;;;14.40;99.90;;;;;;5091040;28;20024;-53
2022/06/26 01:24:13;;;;;;;5.85;3.00;;;14.40;99.90;;;;;;5090782;28;20047;-49
2022/06/26 01:26:40;;;;;;;26.92;3.25;;;14.40;99.90;;;;;;5090889;28;20506;-53
2022/06/26 01:29:06;;;;;;;10.85;3.17;;;14.40;99.90;;;;;;5089596;28;20024;-54
2022/06/26 01:31:35;;;;;;;17.38;3.78;;;14.30;99.90;;;;;;5089691;28;20165;-53
2022/06/26 01:34:06;;;;;;;23.13;3.42;;;14.30;99.90;;;;;;5090625;28;20065;-52
2022/06/26 01:36:31;;;;;;;4.93;3.15;;;14.30;99.90;;;;;;5090111;28;20392;-53
2022/06/26 01:38:57;;;;;;;5.90;3.22;;;14.20;99.90;;;;;;5089527;28;20031;-53
2022/06/26 01:41:23;;;;;;;5.60;2.90;;;14.20;99.90;;;;;;5090399;28;20040;-52
2022/06/26 01:43:49;;;;;;;5.30;3.13;;;14.20;99.90;;;;;;5090448;28;20360;-53
2022/06/26 01:46:16;;;;;;;9.68;3.47;;;14.20;99.90;;;;;;5089871;28;20052;-50
2022/06/26 01:48:42;;;;;;;10.75;3.15;;;14.20;99.90;;;;;;5089906;28;20024;-52
2022/06/26 01:51:09;;;;;;;8.88;3.38;;;14.10;99.90;;;;;;5089644;28;20383;-52
2022/06/26 01:53:35;;;;;;;8.27;2.85;;;14.20;99.90;;;;;;5088289;28;20441;-51
2022/06/26 01:56:02;;;;;;;8.38;2.90;;;14.20;99.90;;;;;;5090512;28;20050;-52
2022/06/26 01:58:27;;;;;;;14.57;3.35;;;14.20;99.90;;;;;;5089612;28;20525;-55
2022/06/26 02:00:56;;;;;;;12.88;3.20;;;14.20;99.90;;;;;;5089857;28;20129;-54
2022/06/26 02:03:23;;;;;;;12.43;3.17;;;14.20;99.90;;;;;;5088951;28;20024;-53
2022/06/26 02:05:50;;;;;;;11.02;3.00;;;14.20;99.90;;;;;;5088829;28;20055;-55
2022/06/26 02:08:16;;;;;;;12.32;3.03;;;14.20;99.90;;;;;;5089058;28;20037;-55
2022/06/26 02:13:37;;;;;;;6.68;2.88;;;14.10;99.90;;;;;;5090515;28;20585;-54
2022/06/26 02:16:09;;;;;;;8.02;2.83;;;14.10;99.90;;;;;;5090038;28;20028;-55
2022/06/26 02:18:35;;;;;;;4.65;2.70;;;14.10;99.90;;;;;;5090018;28;20019;-52
2022/06/26 02:21:01;;;;;;;9.52;2.65;;;14.20;99.90;;;;;;5089720;28;20107;-52
2022/06/26 02:23:27;;;;;;;6.00;2.80;;;14.20;99.90;;;;;;5089729;28;20119;-53
2022/06/26 02:25:53;;;;;;;6.95;3.30;;;14.20;99.90;;;;;;5090483;28;20035;-54
2022/06/26 02:28:19;;;;;;;15.70;3.00;;;14.00;99.90;;;;;;5093639;28;20733;-52
2022/06/26 02:30:46;;;;;;;7.78;2.63;;;14.00;99.90;;;;;;5092938;28;20386;-51
2022/06/26 02:33:12;;;;;;;11.52;3.67;;;14.10;99.90;;;;;;5094037;28;20020;-54
2022/06/26 02:35:38;;;;;;;10.75;2.80;;;14.00;99.90;;;;;;5093360;28;20024;-52
2022/06/26 02:38:04;;;;;;;13.70;2.55;;;13.90;99.90;;;;;;5093731;28;20020;-53
2022/06/26 02:40:30;;;;;;;17.48;2.92;;;13.90;99.90;;;;;;5093732;28;20152;-53
2022/06/26 02:42:57;;;;;;;17.17;3.03;;;13.80;99.90;;;;;;5092821;28;20463;-52
2022/06/26 02:45:23;;;;;;;11.38;2.55;;;13.70;99.90;;;;;;5092973;28;20035;-51
2022/06/26 02:47:49;;;;;;;11.73;3.00;;;13.70;99.90;;;;;;5092864;28;20063;-54
2022/06/26 02:50:15;;;;;;;17.50;3.53;;;13.70;99.90;;;;;;5093486;28;20052;-53
2022/06/26 02:52:42;;;;;;;9.43;2.75;;;13.60;99.90;;;;;;5093404;28;20119;-51
2022/06/26 02:55:08;;;;;;;10.15;2.90;;;13.60;99.90;;;;;;5093110;28;20069;-54
2022/06/26 02:57:34;;;;;;;6.20;3.20;;;13.60;99.90;;;;;;5092889;28;20016;-53
2022/06/26 02:59:59;;;;;;;9.07;2.33;;;13.60;99.90;;;;;;5093390;28;20028;-51
2022/06/26 03:02:26;;;;;;;10.20;2.88;;;13.60;99.90;;;;;;5092656;28;20119;-52
2022/06/26 03:04:53;;;;;;;3.55;3.05;;;13.60;99.90;;;;;;5093783;28;20352;-54
2022/06/26 03:07:19;;;;;;;17.85;3.20;;;13.60;99.90;;;;;;5092584;28;20024;-52
2022/06/26 03:09:45;;;;;;;11.57;3.03;;;13.60;99.90;;;;;;5091765;28;20108;-53
2022/06/26 03:12:11;;;;;;;12.57;2.75;;;13.60;99.90;;;;;;5093514;28;20503;-51
2022/06/26 03:14:37;;;;;;;16.00;2.65;;;13.50;99.90;;;;;;5092720;28;20467;-55
2022/06/26 03:17:03;;;;;;;15.75;2.40;;;13.50;99.90;;;;;;5091305;28;20024;-51
2022/06/26 03:19:29;;;;;;;7.93;2.55;;;13.40;99.90;;;;;;5092912;28;20479;-53
2022/06/26 03:21:54;;;;;;;17.52;3.20;;;13.50;99.90;;;;;;5092954;28;20020;-52
2022/06/26 03:24:20;;;;;;;12.48;2.60;;;13.40;99.90;;;;;;5092747;28;20027;-54
2022/06/26 03:26:46;;;;;;;12.90;2.80;;;13.40;99.90;;;;;;5092889;28;20322;-52
2022/06/26 03:29:12;;;;;;;12.50;2.55;;;13.40;99.90;;;;;;5092805;28;20064;-55
2022/06/26 03:31:38;;;;;;;8.52;2.58;;;13.40;99.90;;;;;;5092317;28;20024;-55
2022/06/26 03:34:04;;;;;;;13.07;2.50;;;13.40;99.90;;;;;;5092046;28;20120;-53
2022/06/26 03:36:30;;;;;;;11.75;3.10;;;13.40;99.90;;;;;;5091066;28;20039;-52
2022/06/26 03:38:56;;;;;;;5.35;2.38;;;13.40;99.90;;;;;;5092107;28;20111;-56
2022/06/26 03:41:22;;;;;;;13.65;2.53;;;13.50;99.90;;;;;;5092139;28;20051;-52
2022/06/26 03:43:48;;;;;;;13.98;2.58;;;13.60;99.90;;;;;;5092868;28;20089;-55
2022/06/26 03:46:14;;;;;;;14.55;3.00;;;13.60;99.90;;;;;;5089578;28;20431;-55
2022/06/26 03:48:40;;;;;;;11.07;3.13;;;13.60;99.90;;;;;;5092555;28;20024;-53
2022/06/26 03:51:06;;;;;;;4.72;2.42;;;13.60;99.90;;;;;;5092247;28;20693;-53
2022/06/26 03:53:32;;;;;;;9.45;2.45;;;13.60;99.90;;;;;;5091271;28;20122;-56
2022/06/26 03:55:58;;;;;;;13.05;2.83;;;13.70;99.90;;;;;;5092406;28;20030;-55
2022/06/26 03:58:24;;;;;;;6.90;2.53;;;13.70;99.90;;;;;;5091598;28;20406;-52
2022/06/26 04:00:50;;;;;;;10.63;2.78;;;13.80;99.90;;;;;;5091228;28;20069;-56
2022/06/26 04:03:16;;;;;;;7.40;2.70;;;13.80;99.90;;;;;;5091334;28;20063;-52
2022/06/26 04:05:42;;;;;;;9.70;3.00;;;14.00;99.90;;;;;;5092594;28;20043;-53
2022/06/26 04:08:08;;;;;;;9.50;2.72;;;14.00;99.90;;;;;;5091715;28;20026;-55
2022/06/26 04:10:34;;;;;;;6.53;2.80;;;14.00;99.90;;;;;;5091679;28;20027;-55
2022/06/26 04:13:05;;;;;;;9.77;2.92;;;14.20;99.90;;;;;;5092443;28;20547;-51
2022/06/26 04:15:33;;;;;;;12.13;3.55;;;14.30;99.90;;;;;;5091439;28;20069;-52
2022/06/26 04:18:00;;;;;;;11.85;3.30;;;14.40;99.90;;;;;;5092048;28;20028;-52
2022/06/26 04:20:26;;;;;;;4.85;2.78;;;14.50;99.90;;;;;;5092069;28;20073;-54
2022/06/26 04:23:09;;;;;;;4.40;2.80;;;14.50;99.90;;;;;;5092025;28;20418;-56
2022/06/26 04:25:36;;;;;;;8.38;2.25;;;14.60;99.90;;;;;;5091056;28;20021;-55
2022/06/26 04:28:04;;;;;;;4.40;2.30;;;14.60;99.90;;;;;;5090931;28;20102;-54
2022/06/26 04:30:30;;;;;;;9.35;2.55;;;14.70;99.90;;;;;;5090655;28;20028;-54
2022/06/26 04:32:55;;;;;;;2.67;2.47;;;14.90;99.90;;;;;;5089849;28;20548;-52
2022/06/26 04:35:21;;;;;;;4.93;2.45;;;14.90;99.90;;;;;;5091176;28;20024;-53
2022/06/26 04:37:47;;;;;;;5.10;2.63;;;15.00;99.90;;;;;;5091964;28;20455;-51
2022/06/26 04:40:14;;;;;;;4.05;2.50;;;15.10;99.90;;;;;;5091619;28;20068;-54
2022/06/26 04:42:41;;;;;;;4.70;2.38;;;15.20;99.90;;;;;;5092152;28;20085;-54
2022/06/26 04:45:08;;;;;;;3.95;3.13;;;15.30;99.90;;;;;;5090379;28;20526;-54
2022/06/26 04:47:33;;;;;;;5.10;2.65;;;15.40;99.90;;;;;;5091612;28;20429;-52
2022/06/26 04:49:59;;;;;;;6.38;2.03;;;15.50;99.90;;;;;;5092615;28;20028;-55
2022/06/26 04:52:25;;;;;;;3.30;2.08;;;15.70;99.90;;;;;;5092652;28;20114;-55
2022/06/26 04:54:51;;;;;;;3.40;2.30;;;15.80;99.90;;;;;;5092547;28;20472;-53
2022/06/26 04:57:17;;;;;;;16.17;3.47;;;15.80;99.90;;;;;;5092295;28;20103;-53
2022/06/26 04:59:43;;;;;;;5.38;1.90;;;15.90;99.90;;;;;;5092471;28;20459;-55
2022/06/26 05:02:10;;;;;;;5.20;1.88;;;15.80;99.90;;;;;;5092310;28;20064;-52
2022/06/26 05:04:36;;;;;;;3.15;2.85;;;15.90;99.90;;;;;;5091566;28;20024;-54
2022/06/26 05:07:03;;;;;;;3.05;2.00;;;15.90;99.90;;;;;;5091220;28;20659;-54
2022/06/26 05:09:29;;;;;;;2.90;2.22;;;16.00;99.90;;;;;;5091349;28;20046;-56
2022/06/26 05:11:55;;;;;;;3.15;2.55;;;16.10;99.90;;;;;;5091329;28;20066;-53
2022/06/26 05:14:21;;;;;;;3.63;2.63;;;16.20;99.90;;;;;;5091200;28;20032;-55
2022/06/26 05:16:46;;;;;;;2.10;2.00;;;16.30;99.90;;;;;;5089821;28;20031;-54
2022/06/26 05:19:13;;;;;;;3.72;2.33;;;16.40;99.90;;;;;;5091264;28;20020;-53
2022/06/26 05:21:38;;;;;;;2.92;2.65;;;16.60;99.90;;;;;;5091231;28;20051;-55
2022/06/26 05:24:04;;;;;;;3.60;2.30;;;16.70;99.90;;;;;;5091247;28;20101;-56
2022/06/26 05:26:30;;;;;;;5.07;2.72;;;16.80;99.90;;;;;;5090907;28;20053;-53
2022/06/26 05:28:56;;;;;;;5.85;2.95;;;17.00;99.90;;;;;;5091013;28;20450;-57
2022/06/26 05:31:23;;;;;;;6.22;3.25;;;17.10;99.90;;;;;;5091017;28;20412;-53
2022/06/26 05:33:49;;;;;;;2.97;2.35;;;17.20;99.90;;;;;;5091076;28;20081;-56
2022/06/26 05:36:15;;;;;;;5.47;3.33;;;17.30;99.90;;;;;;5089857;28;20028;-55
2022/06/26 05:38:41;;;;;;;3.25;2.97;;;17.40;99.90;;;;;;5090492;28;20024;-54
2022/06/26 05:41:08;;;;;;;4.05;3.38;;;17.50;99.90;;;;;;5090010;28;20051;-54
2022/06/26 05:43:33;;;;;;;5.57;3.22;;;17.50;99.90;;;;;;5090695;28;20024;-55
2022/06/26 05:46:01;;;;;;;3.85;2.90;;;17.60;99.90;;;;;;5090629;28;20043;-54
2022/06/26 05:48:27;;;;;;;6.78;2.75;;;17.70;99.90;;;;;;5090284;28;20020;-53
2022/06/26 05:50:53;;;;;;;5.97;3.35;;;17.80;99.90;;;;;;5090303;28;20024;-55
2022/06/26 05:53:19;;;;;;;6.57;3.03;;;17.80;99.90;;;;;;5090435;28;20020;-56
2022/06/26 05:55:45;;;;;;;4.00;3.08;;;17.90;99.90;;;;;;5090460;28;20027;-56
2022/06/26 05:58:11;;;;;;;3.10;2.80;;;18.10;99.90;;;;;;5090350;28;20483;-54
2022/06/26 06:00:39;;;;;;;4.75;2.97;;;18.20;99.90;;;;;;5089418;28;20024;-56
2022/06/26 06:03:05;;;;;;;6.45;3.05;;;18.30;99.90;;;;;;5090534;28;20103;-56
2022/06/26 06:05:32;;;;;;;4.75;3.10;;;18.40;99.90;;;;;;5090813;28;20712;-56
2022/06/26 06:07:58;;;;;;;5.88;4.28;;;18.50;99.90;;;;;;5090496;28;20127;-54
2022/06/26 06:10:24;;;;;;;7.20;3.42;;;18.60;99.90;;;;;;5090316;28;20103;-55
2022/06/26 06:12:51;;;;;;;4.60;3.03;;;18.70;99.90;;;;;;5089130;28;20032;-53
2022/06/26 06:15:18;;;;;;;7.15;3.22;;;18.70;99.90;;;;;;5090335;28;20052;-57
2022/06/26 06:17:44;;;;;;;3.15;2.90;;;18.80;99.90;;;;;;5090371;28;20440;-55
2022/06/26 06:20:13;;;;;;;5.03;2.20;;;18.90;99.90;;;;;;5090400;28;20014;-55
2022/06/26 06:22:40;;;;;;;2.63;2.38;;;19.10;99.90;;;;;;5089217;28;20410;-56
2022/06/26 06:25:07;;;;;;;3.47;2.50;;;19.20;99.90;;;;;;5089156;28;20059;-55
2022/06/26 06:27:33;;;;;;;7.13;2.55;;;19.30;99.90;;;;;;5090152;28;20047;-57
2022/06/26 06:29:59;;;;;;;7.05;2.40;;;19.30;99.90;;;;;;5090388;28;20556;-57
2022/06/26 06:32:25;;;;;;;2.58;2.30;;;19.40;99.90;;;;;;5090280;28;20012;-55
2022/06/26 06:34:50;;;;;;;3.35;2.28;;;19.50;99.90;;;;;;5089306;28;20108;-56
2022/06/26 06:37:16;;;;;;;1.75;1.65;;;19.60;99.90;;;;;;5089924;28;20479;-53
2022/06/26 06:39:42;;;;;;;5.32;1.52;;;19.70;99.90;;;;;;5090076;28;20097;-55
2022/06/26 06:42:08;;;;;;;5.65;2.33;;;19.80;99.90;;;;;;5090198;28;20017;-55
2022/06/26 06:44:33;;;;;;;1.98;1.88;;;20.00;99.90;;;;;;5090235;28;20395;-57
2022/06/26 06:46:59;;;;;;;2.20;1.90;;;20.00;99.90;;;;;;5090250;28;20017;-55
2022/06/26 06:49:26;;;;;;;1.88;1.75;;;20.20;99.90;;;;;;5089863;28;20024;-57
2022/06/26 06:51:52;;;;;;;4.07;2.50;;;20.20;99.90;;;;;;5090320;28;20028;-56
2022/06/26 06:54:18;;;;;;;5.45;2.10;;;20.30;99.90;;;;;;5089829;28;20043;-52
2022/06/26 06:56:44;;;;;;;4.47;2.75;;;20.40;99.90;;;;;;5089627;28;20024;-55
2022/06/26 06:59:09;;;;;;;3.42;2.22;;;20.50;99.90;;;;;;5089617;28;20016;-56
2022/06/26 07:01:35;;;;;;;4.40;2.33;;;20.50;99.90;;;;;;5089945;28;20028;-54
2022/06/26 07:04:01;;;;;;;7.00;1.90;;;20.60;99.90;;;;;;5088633;28;20025;-57
2022/06/26 07:06:27;;;;;;;2.28;2.08;;;20.70;99.90;;;;;;5089799;28;20024;-53
2022/06/26 07:08:53;;;;;;;2.22;2.05;;;20.70;99.90;;;;;;5089814;28;20459;-56
2022/06/26 07:11:19;;;;;;;6.20;2.13;;;20.70;99.90;;;;;;5090277;28;20022;-55
2022/06/26 07:13:45;;;;;;;2.22;2.03;;;20.90;99.90;;;;;;5093606;28;20111;-56
2022/06/26 07:16:11;;;;;;;4.90;2.20;;;20.90;99.90;;;;;;5093268;28;20114;-54
2022/06/26 07:18:37;;;;;;;5.60;1.95;;;21.00;99.90;;;;;;5093771;28;20028;-55
2022/06/26 07:21:03;;;;;;;2.97;2.17;;;21.10;99.90;;;;;;5094023;28;20020;-55
2022/06/26 07:23:29;;;;;;;3.13;2.85;;;20.90;99.90;;;;;;5093130;28;20020;-56
2022/06/26 07:25:56;;;;;;;1.90;1.73;;;21.10;99.90;;;;;;5092052;28;20032;-52
2022/06/26 07:28:22;;;;;;;2.03;1.80;;;21.30;99.90;;;;;;5093265;28;20081;-54
2022/06/26 07:30:48;;;;;;;2.28;2.00;;;21.50;99.90;;;;;;5093103;28;20114;-53
2022/06/26 07:35:58;;;;;;;2.05;1.85;;;21.50;99.90;;;;;;5072893;28;20089;-52
2022/06/26 07:38:24;;;;;;;3.35;2.05;;;21.70;99.90;;;;;;5072525;28;20523;-56
2022/06/26 07:40:50;;;;;;;5.50;1.52;;;21.90;99.90;;;;;;5072836;28;20049;-56
2022/06/26 07:43:15;;;;;;;2.10;1.55;;;22.00;99.90;;;;;;5072795;28;20158;-55
2022/06/26 07:45:41;;;;;;;8.25;1.65;;;22.10;99.90;;;;;;5072885;28;20016;-52
2022/06/26 07:48:07;;;;;;;8.32;1.40;;;22.20;99.90;;;;;;5071131;28;20024;-55
2022/06/26 07:50:33;;;;;;;3.30;1.52;;;22.40;99.90;;;;;;5072460;28;20032;-55
2022/06/26 07:52:58;;;;;;;1.83;1.17;;;22.50;99.90;;;;;;5072649;28;20468;-55
2022/06/26 07:55:24;;;;;;;4.25;1.70;;;22.70;99.90;;;;;;5072105;28;20024;-53
2022/06/26 07:57:50;;;;;;;1.63;1.33;;;22.80;99.90;;;;;;5072717;28;20032;-55
2022/06/26 08:00:15;;;;;;;2.20;1.40;;;22.60;99.90;;;;;;5072006;28;20029;-56
2022/06/26 08:02:41;;;;;;;2.20;1.50;;;22.70;99.90;;;;;;5072234;28;20040;-55
2022/06/26 08:05:07;;;;;;;1.30;1.20;;;22.80;99.90;;;;;;5072133;28;20105;-55
2022/06/26 08:07:33;;;;;;;2.65;1.05;;;22.90;99.90;;;;;;5072271;28;20432;-54
2022/06/26 08:09:59;;;;;;;5.20;1.67;;;22.90;99.90;;;;;;5071986;28;20108;-55
2022/06/26 08:12:24;;;;;;;7.05;1.33;;;23.00;99.90;;;;;;5071988;28;20027;-56
2022/06/26 08:14:50;;;;;;;3.60;1.00;;;23.20;99.90;;;;;;5070714;28;20021;-54
2022/06/26 08:17:16;;;;;;;2.63;1.40;;;23.40;99.90;;;;;;5072120;28;20449;-53
2022/06/26 08:19:42;;;;;;;1.33;1.10;;;23.50;99.90;;;;;;5071722;28;20024;-54
2022/06/26 08:22:07;;;;;;;1.20;1.10;;;23.40;99.90;;;;;;5071855;28;20024;-54
2022/06/26 08:24:35;;;;;;;1.23;1.00;;;23.60;99.90;;;;;;5070765;28;20376;-57
2022/06/26 08:27:01;;;;;;;8.98;1.02;;;23.70;99.90;;;;;;5071905;28;20024;-57
2022/06/26 08:29:27;;;;;;;3.97;1.30;;;23.60;99.90;;;;;;5071614;28;20078;-57
2022/06/26 08:31:53;;;;;;;3.00;1.05;;;23.80;99.90;;;;;;5071492;28;20032;-51
2022/06/26 08:34:20;;;;;;;1.30;1.20;;;23.90;99.90;;;;;;5071215;28;20024;-55
2022/06/26 08:36:46;;;;;;;2.60;1.40;;;24.00;99.90;;;;;;5071700;28;20085;-54
2022/06/26 08:39:12;;;;;;;4.10;1.35;;;24.00;99.90;;;;;;5071130;28;20028;-55
2022/06/26 08:41:43;;;;;;;7.38;1.85;;;23.70;99.90;;;;;;5071811;28;20475;-53
2022/06/26 08:44:10;;;;;;;1.20;1.10;;;23.80;99.90;;;;;;5071617;28;20048;-56
2022/06/26 08:46:39;;;;;;;2.25;1.67;;;23.90;99.90;;;;;;5072121;28;20024;-54
2022/06/26 08:49:09;;;;;;;2.90;1.30;;;24.10;99.90;;;;;;5072576;28;20040;-56
2022/06/26 08:51:40;;;;;;;4.35;1.55;;;24.10;99.90;;;;;;5072359;28;20028;-55
2022/06/26 08:54:07;;;;;;;2.65;1.45;;;24.40;99.90;;;;;;5072685;28;20490;-56
2022/06/26 08:56:33;;;;;;;1.25;1.00;;;24.50;99.90;;;;;;5072172;28;20035;-55
2022/06/26 08:58:59;;;;;;;1.20;1.00;;;24.70;99.90;;;;;;5072273;28;20025;-52
2022/06/26 09:01:25;;;;;;;3.60;1.27;;;24.80;99.90;;;;;;5070731;28;20021;-55
2022/06/26 09:03:51;;;;;;;0.95;0.93;;;24.80;99.90;;;;;;5071186;28;20021;-55
2022/06/26 09:06:16;;;;;;;5.00;1.80;;;25.00;99.90;;;;;;5071248;28;20024;-56
2022/06/26 09:08:44;;;;;;;3.22;1.50;;;24.90;99.90;;;;;;5070819;28;20023;-55
2022/06/26 09:11:10;;;;;;;2.42;1.17;;;25.20;99.90;;;;;;5070919;28;20020;-57
2022/06/26 09:13:41;;;;;;;1.33;1.23;;;25.10;99.90;;;;;;5071074;28;20349;-55
2022/06/26 09:16:07;;;;;;;1.65;1.10;;;25.10;99.90;;;;;;5071561;28;20031;-56
2022/06/26 09:18:35;;;;;;;1.27;1.13;;;25.20;99.90;;;;;;5071470;28;20456;-55
2022/06/26 09:21:04;;;;;;;5.22;1.15;;;25.50;99.90;;;;;;5070199;28;20412;-55
2022/06/26 09:23:31;;;;;;;5.47;2.22;;;25.40;98.40;;;;;;5070803;28;20020;-55
2022/06/26 09:25:57;;;;;;;2.70;1.40;;;25.50;98.60;;;;;;5070668;28;20121;-56
2022/06/26 09:28:24;;;;;;;7.43;1.30;;;25.70;98.90;;;;;;5070565;28;20056;-56
2022/06/26 09:31:01;;;;;;;2.15;1.25;;;25.60;97.70;;;;;;5070864;28;20024;-56
2022/06/26 09:33:34;;;;;;;3.75;1.50;;;25.60;98.00;;;;;;5070675;28;20043;-56
2022/06/26 09:36:02;;;;;;;2.22;1.15;;;25.90;97.60;;;;;;5070291;28;20383;-55
2022/06/26 09:38:33;;;;;;;2.13;0.80;;;26.10;99.40;;;;;;5069236;28;20040;-56
2022/06/26 09:41:02;;;;;;;5.82;1.30;;;26.40;97.40;;;;;;5070677;28;20453;-57
2022/06/26 09:43:30;;;;;;;2.05;1.40;;;26.60;96.80;;;;;;5084058;28;20031;-56
2022/06/26 09:45:58;;;;;;;1.70;1.20;;;26.70;96.80;;;;;;5086607;28;20457;-58
2022/06/26 09:48:24;;;;;;;2.00;1.25;;;26.70;96.50;;;;;;5090673;28;20158;-57
2022/06/26 09:50:51;;;;;;;1.67;1.35;;;26.90;97.30;;;;;;5091328;28;20027;-55
2022/06/26 09:53:18;;;;;;;1.00;0.90;;;26.90;95.80;;;;;;5091579;28;20051;-53
2022/06/26 09:55:48;;;;;;;3.60;0.82;;;26.90;97.00;;;;;;5091587;28;20020;-56
2022/06/26 09:58:14;;;;;;;1.77;1.00;;;27.20;96.30;;;;;;5091309;28;20032;-56
2022/06/26 10:00:41;;;;;;;6.28;1.00;;;27.30;95.90;;;;;;5091846;28;20507;-59
2022/06/26 10:08:42;;;;;;;3.25;1.00;;;27.60;94.30;;;;;;5091520;28;20031;-56
2022/06/26 10:11:08;;;;;;;0.65;0.65;;;27.70;93.90;;;;;;5091481;28;20066;-56
2022/06/26 10:13:36;;;;;;;0.73;0.73;;;27.70;93.30;;;;;;5091479;28;20035;-57
2022/06/26 10:16:14;;;;;;;1.52;0.70;;;27.90;92.90;;;;;;5091725;28;20028;-58
2022/06/26 10:18:55;;;;;;;2.85;0.90;;;28.00;93.60;;;;;;5091525;28;20039;-58
2022/06/26 10:21:20;;;;;;;4.28;1.10;;;28.40;93.20;;;;;;5090945;28;20055;-57
2022/06/26 10:23:46;;;;;;;0.80;0.80;;;28.30;91.70;;;;;;5090069;28;20526;-56
2022/06/26 10:26:17;;;;;;;1.35;0.82;;;28.40;92.30;;;;;;5087108;28;20461;-56
2022/06/26 10:28:57;;;;;;;1.92;0.70;;;28.60;91.80;;;;;;5087355;28;20040;-56
2022/06/26 10:31:23;;;;;;;4.85;0.60;;;28.70;91.70;;;;;;5080202;28;20424;-55
2022/06/26 10:33:49;;;;;;;3.22;0.68;;;28.60;89.10;;;;;;5080246;28;20559;-57
2022/06/26 10:36:23;;;;;;;1.25;0.57;;;28.60;88.60;;;;;;5090534;28;20039;-55
2022/06/26 10:38:48;;;;;;;;;;;28.50;88.80;;;;;;5101179;28;20401;-56
2022/06/26 10:44:13;;;;;;;1.20;0.60;;;28.50;89.40;;;;;;5100689;28;20038;-55
2022/06/26 10:46:47;;;;;;;4.97;0.60;;;28.60;89.30;;;;;;5101498;28;20047;-55
2022/06/26 10:49:13;;;;;;;1.55;0.70;;;28.40;88.60;;;;;;5103402;28;20111;-58
2022/06/26 10:51:45;;;;;;;6.22;0.70;;;28.60;86.10;;;;;;5104716;28;20125;-56
2022/06/26 10:54:22;;;;;;;3.83;0.60;;;28.70;84.20;;;;;;5101912;28;20119;-57
2022/06/26 10:57:17;;;;;;;1.33;0.65;;;28.50;84.50;;;;;;5084507;28;20035;-56
2022/06/26 10:59:44;;;;;;;0.50;0.50;;;28.90;87.40;;;;;;5080983;28;20067;-57
2022/06/26 11:02:11;;;;;;;1.48;0.60;;;29.00;84.80;;;;;;5084422;28;20592;-57
2022/06/26 11:04:44;;;;;;;0.90;0.68;;;29.20;86.70;;;;;;5083547;28;20039;-55
2022/06/26 11:07:13;;;;;;;2.05;0.50;;;29.20;85.50;;;;;;5084168;28;20106;-56
2022/06/26 11:09:38;;;;;;;3.40;0.47;;;29.20;84.80;;;;;;5083162;28;20835;-58
2022/06/26 11:12:04;;;;;;;2.92;0.57;;;29.10;85.30;;;;;;5084253;28;20040;-53
2022/06/26 11:14:30;;;;;;;0.60;0.60;;;29.30;81.70;;;;;;5083787;28;20798;-55
2022/06/26 11:16:56;;;;;;;0.80;0.80;;;29.20;82.30;;;;;;5083225;28;20052;-57
2022/06/26 11:19:26;;;;;;;1.33;0.98;;;29.60;80.80;;;;;;5083055;28;20406;-56
2022/06/26 11:22:12;;;;;;;1.70;0.70;;;29.60;84.50;;;;;;5084065;28;20024;-54
2022/06/26 11:24:52;;;;;;;0.90;0.50;;;29.70;84.60;;;;;;5083137;28;20391;-55
2022/06/26 11:27:25;;;;;;;0.60;0.60;;;29.80;83.30;;;;;;5082989;28;20020;-54
2022/06/26 11:29:52;;;;;;;0.45;0.43;;;29.80;83.40;;;;;;5084001;28;20039;-56
2022/06/26 11:32:22;;;;;;;5.88;0.50;;;29.80;83.70;;;;;;5082973;28;20032;-56
2022/06/26 11:34:52;;;;;;;3.03;0.80;;;30.00;83.10;;;;;;5082193;28;20467;-56
2022/06/26 11:37:35;;;;;;;1.75;0.57;;;30.00;79.40;;;;;;5083262;28;20030;-56
2022/06/26 11:40:12;;;;;;;2.88;0.60;;;29.90;79.40;;;;;;5081829;28;20090;-58
2022/06/26 11:42:38;;;;;;;0.93;0.93;;;29.80;80.50;;;;;;5083335;28;20096;-57
2022/06/26 11:45:05;;;;;;;0.63;0.43;;;30.00;78.20;;;;;;5083342;28;20048;-57
2022/06/26 11:47:33;;;;;;;1.40;0.65;;;30.40;81.40;;;;;;5082185;28;20787;-57
2022/06/26 11:49:59;;;;;;;0.65;0.45;;;30.40;77.90;;;;;;5082610;28;20036;-55
2022/06/26 11:52:25;;;;;;;2.63;1.27;;;30.40;79.30;;;;;;5082830;28;20023;-56
2022/06/26 11:55:01;;;;;;;0.57;0.52;;;30.80;81.20;;;;;;5082273;28;20054;-56
2022/06/26 11:57:27;;;;;;;1.00;0.38;;;30.80;78.40;;;;;;5083185;28;20023;-56
2022/06/26 11:59:53;;;;;;;0.68;0.60;;;30.70;78.50;;;;;;5079928;28;20039;-56
2022/06/26 12:02:26;;;;;;;1.13;0.68;;;30.50;73.50;;;;;;5083687;28;20036;-58
2022/06/26 12:04:55;;;;;;;1.10;0.60;;;30.60;74.60;;;;;;5082893;28;20024;-55
2022/06/26 12:07:20;;;;;;;3.17;0.45;;;30.40;77.30;;;;;;5082452;28;20588;-56
2022/06/26 12:09:46;;;;;;;1.10;0.50;;;30.50;74.10;;;;;;5082925;28;20036;-55
2022/06/26 12:12:13;;;;;;;0.70;0.57;;;30.70;77.00;;;;;;5081453;28;20471;-56
2022/06/26 12:14:52;;;;;;;0.60;0.57;;;31.00;79.20;;;;;;5083296;28;20028;-55
2022/06/26 12:17:22;;;;;;;2.83;0.70;;;31.40;76.30;;;;;;5082581;28;20034;-56
2022/06/26 12:19:48;;;;;;;1.30;0.60;;;31.30;73.40;;;;;;5082754;28;20036;-55
2022/06/26 12:22:24;;;;;;;2.00;0.65;;;31.40;73.10;;;;;;5081510;28;20039;-56
2022/06/26 12:24:51;;;;;;;0.75;0.52;;;32.00;72.70;;;;;;5081107;28;20017;-56
2022/06/26 12:27:16;;;;;;;1.52;0.57;;;33.00;72.00;;;;;;5073257;28;20031;-56
2022/06/26 12:29:42;;;;;;;3.55;0.60;;;33.70;67.60;;;;;;5081440;28;20398;-56
2022/06/26 12:32:08;;;;;;;2.58;0.63;;;33.90;68.40;;;;;;5082575;28;20036;-55
2022/06/26 12:34:33;;;;;;;1.02;0.50;;;33.90;64.80;;;;;;5082546;28;20043;-54
2022/06/26 12:36:59;;;;;;;0.63;0.60;;;33.90;65.40;;;;;;5081658;28;20046;-56
2022/06/26 12:39:25;;;;;;;0.95;0.50;;;34.30;63.70;;;;;;5082306;28;20138;-56
2022/06/26 12:41:50;;;;;;;1.33;0.50;;;34.30;64.40;;;;;;5082254;28;20121;-56
2022/06/26 12:44:16;;;;;;;0.28;0.28;;;34.60;64.10;;;;;;5081892;28;20031;-56
2022/06/26 12:46:42;;;;;;;2.95;0.47;;;35.30;64.70;;;;;;5079848;28;20020;-57
2022/06/26 12:49:07;;;;;;;6.00;0.73;;;35.50;60.50;;;;;;5080778;28;20031;-56
2022/06/26 12:51:34;;;;;;;3.40;0.30;;;34.90;57.70;;;;;;5076598;28;20025;-57
2022/06/26 12:54:00;;;;;;;4.32;0.40;;;35.40;59.50;;;;;;5081765;28;20028;-57
2022/06/26 12:56:26;;;;;;;0.52;0.35;;;35.60;56.30;;;;;;5082099;28;20110;-57
2022/06/26 12:58:52;;;;;;;4.28;0.50;;;35.40;58.90;;;;;;5081644;28;20020;-56